Time;durP1;ratioP1;P1;durP2;ratioP2;P2;SDS_P1;SDS_P2;PMS_P1;PMS_P2;Temp;Humidity;BMP_temperature;BMP_pressure;BME280_temperature;BME280_humidity;BME280_pressure;Samples;Min_cycle;Max_cycle;Signal;HPM_P1;HPM_P2
2023/07/23 00:01:18;;;;;;;2.87;1.80;;;;;;;23.85;47.79;99606.69;4386854;32;34728;-76
2023/07/23 00:03:46;;;;;;;2.87;1.52;;;;;;;23.75;47.70;99606.22;4386890;32;34244;-76
2023/07/23 00:06:14;;;;;;;1.87;1.15;;;;;;;23.56;47.65;99600.41;4376188;32;34796;-76
2023/07/23 00:08:44;;;;;;;3.25;1.17;;;;;;;23.77;47.17;99598.69;4400623;32;33398;-75
2023/07/23 00:11:12;;;;;;;4.18;1.95;;;;;;;23.68;47.09;99603.44;4403190;32;34783;-75
2023/07/23 00:13:39;;;;;;;5.22;1.83;;;;;;;23.66;47.04;99608.28;4402161;32;33930;-75
2023/07/23 00:16:07;;;;;;;2.97;1.55;;;;;;;23.70;46.57;99607.69;4396957;32;33571;-74
2023/07/23 00:18:35;;;;;;;2.53;1.48;;;;;;;23.72;46.47;99612.94;4401847;32;33113;-74
2023/07/23 00:21:03;;;;;;;2.78;1.62;;;;;;;23.70;46.53;99618.63;4431350;32;33715;-74
2023/07/23 00:23:30;;;;;;;5.35;2.37;;;;;;;23.71;46.45;99611.25;4437984;32;33804;-74
2023/07/23 00:25:58;;;;;;;3.50;1.85;;;;;;;23.66;46.36;99611.00;4437591;32;34592;-77
2023/07/23 00:28:25;;;;;;;2.15;1.10;;;;;;;23.74;46.00;99618.22;4435906;32;34561;-77
2023/07/23 00:30:53;;;;;;;5.70;2.17;;;;;;;23.76;46.43;99614.25;4428774;32;33649;-81
2023/07/23 00:33:23;;;;;;;3.25;1.60;;;;;;;23.81;45.73;99619.91;4436158;32;33728;-76
2023/07/23 00:35:50;;;;;;;3.70;2.33;;;;;;;23.81;45.49;99616.34;4448064;32;34623;-79
2023/07/23 00:38:19;;;;;;;2.58;1.73;;;;;;;23.94;45.34;99622.69;4443823;32;33347;-78
2023/07/23 00:40:47;;;;;;;2.58;1.45;;;;;;;23.92;45.15;99619.34;4435128;32;35369;-82
2023/07/23 00:43:15;;;;;;;4.65;2.28;;;;;;;23.88;45.29;99617.22;4431826;32;35684;-83
2023/07/23 00:45:42;;;;;;;3.25;1.55;;;;;;;23.97;45.10;99609.69;4438232;32;33901;-80
2023/07/23 00:48:11;;;;;;;4.47;2.03;;;;;;;23.88;45.21;99615.34;4436370;32;33711;-80
2023/07/23 00:50:39;;;;;;;2.40;1.45;;;;;;;23.91;45.27;99614.91;4422918;32;33887;-80
2023/07/23 00:53:06;;;;;;;3.62;2.00;;;;;;;23.91;45.63;99614.91;4434891;32;33870;-81
2023/07/23 00:55:34;;;;;;;4.18;1.95;;;;;;;23.97;45.59;99606.94;4424102;32;34226;-80
2023/07/23 00:58:02;;;;;;;4.12;1.50;;;;;;;23.99;45.13;99604.87;4422589;32;34406;-80
2023/07/23 01:00:29;;;;;;;5.10;1.92;;;;;;;24.05;44.75;99610.34;4429504;32;34730;-79
2023/07/23 01:02:57;;;;;;;1.83;1.02;;;;;;;24.10;44.69;99610.56;4432255;32;33918;-78
2023/07/23 01:05:26;;;;;;;2.17;1.45;;;;;;;24.09;44.82;99625.28;4435139;32;33850;-77
2023/07/23 01:07:53;;;;;;;3.62;1.90;;;;;;;24.16;44.44;99619.84;4431879;32;34728;-77
2023/07/23 01:10:21;;;;;;;3.60;1.55;;;;;;;24.17;44.40;99613.31;4417041;32;34605;-77
2023/07/23 01:12:50;;;;;;;3.05;1.37;;;;;;;24.17;44.59;99616.03;4439441;32;33731;-84
2023/07/23 01:15:18;;;;;;;2.97;1.70;;;;;;;24.13;45.17;99617.50;4422339;32;33923;-83
2023/07/23 01:17:46;;;;;;;2.97;1.60;;;;;;;24.19;44.86;99611.22;4434411;32;34123;-77
2023/07/23 01:20:14;;;;;;;3.45;1.33;;;;;;;24.20;44.92;99621.09;4436641;32;33655;-84
2023/07/23 01:22:41;;;;;;;3.47;1.35;;;;;;;23.99;45.43;99618.53;4432828;32;34976;-84
2023/07/23 01:25:09;;;;;;;4.85;2.28;;;;;;;24.18;44.98;99623.22;4436263;32;33869;-79
2023/07/23 01:27:37;;;;;;;4.80;1.70;;;;;;;23.74;45.89;99632.72;4435033;32;33215;-80
2023/07/23 01:30:08;;;;;;;3.42;1.80;;;;;;;24.04;45.21;99624.22;4437383;32;33919;-84
2023/07/23 01:32:37;;;;;;;3.25;1.30;;;;;;;24.19;44.96;99616.69;4430484;32;34100;-82
2023/07/23 01:35:13;;;;;;;2.75;1.70;;;;;;;24.22;45.00;99627.22;4413750;32;34978;-82
2023/07/23 01:37:43;;;;;;;2.97;1.50;;;;;;;24.21;45.40;99627.44;4431528;32;33547;-83
2023/07/23 01:40:11;;;;;;;2.30;1.37;;;;;;;24.25;44.98;99629.53;4416671;32;35303;-81
2023/07/23 01:42:38;;;;;;;6.03;2.20;;;;;;;24.23;44.93;99630.78;4436547;32;34995;-82
2023/07/23 01:45:06;;;;;;;3.42;1.77;;;;;;;24.22;45.05;99624.50;4412951;32;33704;-82
2023/07/23 01:47:34;;;;;;;2.75;1.70;;;;;;;24.06;45.92;99622.13;4423793;32;35008;-82
2023/07/23 01:50:02;;;;;;;2.87;1.73;;;;;;;24.14;45.43;99627.41;4437751;32;33924;-76
2023/07/23 01:52:30;;;;;;;4.75;2.08;;;;;;;24.16;45.25;99625.31;4432369;32;33892;-76
2023/07/23 01:54:57;;;;;;;3.90;1.98;;;;;;;24.20;45.37;99629.31;4434174;32;34031;-76
2023/07/23 01:57:25;;;;;;;3.12;1.75;;;;;;;24.09;45.65;99621.72;4419318;32;33570;-75
2023/07/23 01:59:53;;;;;;;3.25;1.58;;;;;;;24.01;45.80;99614.53;4443360;32;34482;-76
2023/07/23 02:02:20;;;;;;;4.35;2.20;;;;;;;23.99;45.85;99622.09;4430537;32;32645;-75
2023/07/23 02:04:48;;;;;;;3.53;1.70;;;;;;;24.00;45.67;99621.06;4435185;32;35031;-74
2023/07/23 02:07:16;;;;;;;4.78;2.08;;;;;;;23.91;45.90;99619.53;4430510;32;33061;-74
2023/07/23 02:09:43;;;;;;;4.05;1.90;;;;;;;23.90;45.99;99624.16;4424230;32;35021;-73
2023/07/23 02:12:11;;;;;;;3.10;1.52;;;;;;;23.74;46.77;99619.06;4434262;32;34003;-75
2023/07/23 02:14:39;;;;;;;3.92;1.58;;;;;;;23.56;47.29;99627.75;4438997;32;35245;-74
2023/07/23 02:17:06;;;;;;;3.28;1.52;;;;;;;23.84;46.54;99627.72;4434913;32;33178;-74
2023/07/23 02:19:34;;;;;;;2.53;1.15;;;;;;;23.90;46.13;99629.63;4434568;32;32640;-74
2023/07/23 02:22:02;;;;;;;3.33;2.03;;;;;;;23.88;46.54;99631.75;4433354;32;32629;-74
2023/07/23 02:24:30;;;;;;;2.78;1.70;;;;;;;23.73;46.75;99628.31;4433650;32;34819;-71
2023/07/23 02:26:57;;;;;;;4.65;1.75;;;;;;;23.75;46.95;99631.66;4432326;32;33419;-72
2023/07/23 02:29:25;;;;;;;3.55;1.65;;;;;;;23.78;46.99;99624.94;4441159;32;31883;-73
2023/07/23 02:31:53;;;;;;;3.30;1.92;;;;;;;23.73;47.15;99632.94;4429270;32;33931;-71
2023/07/23 02:34:20;;;;;;;4.05;1.95;;;;;;;23.73;47.32;99638.41;4433790;32;34091;-72
2023/07/23 02:36:48;;;;;;;3.53;1.87;;;;;;;23.58;47.71;99638.47;4425585;32;34665;-72
2023/07/23 02:39:16;;;;;;;16.95;1.92;;;;;;;23.51;47.81;99634.87;4432751;32;33292;-72
2023/07/23 02:41:43;;;;;;;2.47;1.90;;;;;;;23.62;47.42;99648.78;4432553;32;34057;-72
2023/07/23 02:44:12;;;;;;;3.15;1.55;;;;;;;23.62;47.49;99648.78;4434249;32;34802;-73
2023/07/23 02:46:39;;;;;;;5.68;1.92;;;;;;;23.55;47.85;99641.63;4435917;32;33657;-72
2023/07/23 02:49:07;;;;;;;6.12;2.53;;;;;;;23.60;47.82;99642.72;4432790;32;33725;-72
2023/07/23 02:51:35;;;;;;;8.63;2.25;;;;;;;23.41;48.30;99647.00;4436578;32;33810;-72
2023/07/23 02:54:03;;;;;;;1.95;1.12;;;;;;;23.41;48.13;99644.28;4432057;32;33933;-73
2023/07/23 02:56:30;;;;;;;3.12;1.52;;;;;;;23.41;47.98;99646.16;4421901;32;33175;-73
2023/07/23 02:58:58;;;;;;;3.72;1.87;;;;;;;23.40;47.69;99647.19;4432396;32;33777;-73
2023/07/23 03:01:26;;;;;;;3.03;1.65;;;;;;;23.40;47.30;99647.19;4433539;32;33794;-72
2023/07/23 03:03:54;;;;;;;4.68;2.10;;;;;;;23.34;47.65;99645.25;4433131;32;34838;-73
2023/07/23 03:06:22;;;;;;;2.90;1.62;;;;;;;23.32;47.59;99641.91;4428658;32;33235;-73
2023/07/23 03:08:49;;;;;;;5.00;2.42;;;;;;;23.32;47.43;99636.44;4434561;32;33370;-73
2023/07/23 03:11:17;;;;;;;3.87;2.08;;;;;;;23.23;47.61;99639.31;4433890;32;33718;-73
2023/07/23 03:13:45;;;;;;;3.30;1.90;;;;;;;23.20;47.70;99642.44;4432049;32;33737;-73
2023/07/23 03:16:12;;;;;;;3.45;1.75;;;;;;;23.08;48.12;99643.19;4432954;32;34045;-73
2023/07/23 03:18:40;;;;;;;6.05;2.08;;;;;;;23.00;48.31;99642.28;4429998;32;33483;-73
2023/07/23 03:21:08;;;;;;;3.83;2.35;;;;;;;22.95;48.36;99635.72;4427477;32;34063;-73
2023/07/23 03:23:35;;;;;;;4.62;1.87;;;;;;;22.95;48.38;99636.59;4423608;32;33975;-73
2023/07/23 03:26:03;;;;;;;2.95;1.58;;;;;;;22.93;48.73;99641.41;4435759;32;34362;-73
2023/07/23 03:28:31;;;;;;;5.60;2.22;;;;;;;22.90;48.73;99640.91;4437638;32;33506;-73
2023/07/23 03:30:58;;;;;;;2.75;1.55;;;;;;;22.96;48.64;99638.28;4433248;32;35249;-73
2023/07/23 03:33:27;;;;;;;2.97;1.65;;;;;;;22.98;48.67;99638.06;4432785;32;33571;-73
2023/07/23 03:35:54;;;;;;;3.00;1.58;;;;;;;22.97;48.69;99645.41;4427200;32;33435;-73
2023/07/23 03:38:22;;;;;;;3.37;1.65;;;;;;;22.93;48.58;99637.81;4430321;32;33172;-73
2023/07/23 03:40:50;;;;;;;2.72;1.45;;;;;;;22.92;48.38;99649.72;4435094;32;33784;-73
2023/07/23 03:43:18;;;;;;;4.57;2.35;;;;;;;22.85;48.63;99641.50;4436596;32;33643;-75
2023/07/23 03:45:45;;;;;;;3.80;1.58;;;;;;;22.84;48.68;99637.09;4424246;32;35499;-74
2023/07/23 03:48:13;;;;;;;2.15;1.20;;;;;;;22.71;49.01;99643.28;4433168;32;33850;-75
2023/07/23 03:50:42;;;;;;;4.22;1.80;;;;;;;22.82;48.75;99636.44;4434973;32;34875;-74
2023/07/23 03:53:09;;;;;;;3.67;1.98;;;;;;;22.83;48.81;99634.56;4434163;32;35566;-76
2023/07/23 03:55:37;;;;;;;3.58;1.70;;;;;;;22.87;48.81;99642.16;4434459;32;33333;-75
2023/07/23 03:58:05;;;;;;;3.17;1.73;;;;;;;22.79;48.94;99639.56;4444115;32;33719;-75
2023/07/23 04:00:32;;;;;;;2.53;1.30;;;;;;;22.77;49.17;99638.91;4431244;32;34379;-73
2023/07/23 04:03:03;;;;;;;8.10;2.17;;;;;;;22.88;48.92;99634.81;4432940;32;34963;-74
2023/07/23 04:05:30;;;;;;;4.90;2.08;;;;;;;22.71;49.62;99635.09;4420472;32;33006;-74
2023/07/23 04:07:58;;;;;;;4.53;2.15;;;;;;;22.83;49.25;99631.84;4433230;32;33317;-75
2023/07/23 04:10:26;;;;;;;4.62;1.73;;;;;;;22.77;49.36;99633.47;4426182;32;35189;-74
2023/07/23 04:12:54;;;;;;;2.67;1.62;;;;;;;22.77;49.47;99634.31;4431305;32;34103;-75
2023/07/23 04:15:21;;;;;;;4.18;1.83;;;;;;;22.65;49.76;99635.87;4432321;32;34393;-73
2023/07/23 04:17:49;;;;;;;4.50;1.73;;;;;;;22.77;49.67;99628.84;4435353;32;33459;-73
2023/07/23 04:20:17;;;;;;;2.42;1.37;;;;;;;22.83;49.78;99626.38;4429581;32;33907;-73
2023/07/23 04:22:45;;;;;;;4.60;1.60;;;;;;;22.88;49.70;99635.66;4434202;32;32013;-75
2023/07/23 04:25:13;;;;;;;4.28;1.60;;;;;;;22.85;49.60;99640.66;4426736;32;34555;-74
2023/07/23 04:27:40;;;;;;;3.87;2.05;;;;;;;22.91;49.37;99637.97;4446683;32;33542;-74
2023/07/23 04:30:08;;;;;;;3.87;1.80;;;;;;;22.58;50.03;99639.59;4438842;32;34707;-71
2023/07/23 04:32:36;;;;;;;6.25;2.03;;;;;;;22.88;49.57;99635.66;4433158;32;33727;-71
2023/07/23 04:35:04;;;;;;;4.45;1.85;;;;;;;22.99;49.38;99646.06;4431979;32;34449;-74
2023/07/23 04:37:32;;;;;;;3.42;1.87;;;;;;;22.97;49.31;99639.12;4434567;32;34022;-73
2023/07/23 04:39:59;;;;;;;6.18;1.58;;;;;;;22.98;49.64;99641.63;4432132;32;34108;-73
2023/07/23 04:42:27;;;;;;;2.60;1.75;;;;;;;23.04;49.49;99641.91;4432631;32;34043;-73
2023/07/23 04:44:55;;;;;;;3.72;1.90;;;;;;;23.19;49.43;99642.66;4432213;32;33481;-72
2023/07/23 04:47:22;;;;;;;5.20;2.17;;;;;;;23.15;49.47;99649.56;4435020;32;33739;-73
2023/07/23 04:49:50;;;;;;;3.70;1.95;;;;;;;23.21;49.25;99651.47;4434157;32;33394;-73
2023/07/23 04:52:18;;;;;;;2.78;1.62;;;;;;;23.33;49.17;99659.97;4435616;32;34059;-73
2023/07/23 04:54:46;;;;;;;4.12;1.98;;;;;;;23.27;48.91;99658.87;4435599;32;34199;-73
2023/07/23 04:57:13;;;;;;;5.07;2.40;;;;;;;23.34;49.04;99659.78;4436687;32;33914;-74
2023/07/23 04:59:41;;;;;;;3.58;1.67;;;;;;;23.52;48.93;99644.75;4431739;32;35189;-73
2023/07/23 05:02:09;;;;;;;6.97;1.75;;;;;;;23.66;48.80;99652.00;4428261;32;33603;-73
2023/07/23 05:04:36;;;;;;;3.28;1.85;;;;;;;23.79;48.59;99652.09;4440089;32;33694;-74
2023/07/23 05:07:04;;;;;;;2.80;1.70;;;;;;;23.89;48.23;99655.28;4432812;32;34482;-74
2023/07/23 05:09:32;;;;;;;9.98;2.37;;;;;;;23.98;48.20;99657.81;4428808;32;33785;-74
2023/07/23 05:11:59;;;;;;;3.37;1.62;;;;;;;24.09;48.00;99666.31;4434083;32;33863;-73
2023/07/23 05:14:27;;;;;;;3.53;1.98;;;;;;;24.19;47.99;99665.91;4430974;32;33318;-73
2023/07/23 05:16:55;;;;;;;4.37;1.98;;;;;;;24.36;47.62;99663.66;4434541;32;33612;-72
2023/07/23 05:19:22;;;;;;;5.65;2.55;;;;;;;24.54;47.42;99665.84;4434051;32;33906;-72
2023/07/23 05:21:50;;;;;;;3.17;1.65;;;;;;;24.72;46.53;99671.56;4432026;32;33712;-72
2023/07/23 05:24:18;;;;;;;5.40;2.22;;;;;;;24.95;46.30;99673.06;4428167;32;33269;-72
2023/07/23 05:26:45;;;;;;;5.12;2.08;;;;;;;25.04;46.11;99671.78;4434872;32;33667;-72
2023/07/23 05:29:13;;;;;;;4.43;1.73;;;;;;;25.03;46.33;99683.78;4421873;32;34902;-71
2023/07/23 05:31:41;;;;;;;4.70;2.17;;;;;;;25.18;45.81;99680.87;4434131;32;34812;-71
2023/07/23 05:34:08;;;;;;;4.68;2.75;;;;;;;25.26;46.35;99680.66;4430821;32;33794;-72
2023/07/23 05:36:36;;;;;;;5.03;2.25;;;;;;;25.37;46.27;99673.72;4432900;32;33616;-72
2023/07/23 05:39:04;;;;;;;4.40;2.10;;;;;;;25.48;45.91;99686.75;4431383;32;34960;-71
2023/07/23 05:41:31;;;;;;;5.25;2.55;;;;;;;25.26;46.69;99688.87;4434964;32;35167;-71
2023/07/23 05:43:59;;;;;;;4.62;2.42;;;;;;;25.05;47.23;99685.28;4425219;32;33329;-72
2023/07/23 05:46:26;;;;;;;5.62;2.37;;;;;;;25.50;46.35;99684.66;4430506;32;33862;-72
2023/07/23 05:48:54;;;;;;;5.78;2.53;;;;;;;25.54;46.37;99681.25;4434026;32;34911;-73
2023/07/23 05:51:22;;;;;;;4.60;1.73;;;;;;;25.57;46.53;99688.22;4431743;32;34064;-72
2023/07/23 05:53:49;;;;;;;5.07;2.30;;;;;;;25.84;46.24;99693.66;4434482;32;33384;-78
2023/07/23 05:56:17;;;;;;;3.08;1.55;;;;;;;25.62;45.96;99693.03;4433679;32;33786;-74
2023/07/23 05:58:44;;;;;;;4.10;2.37;;;;;;;25.88;45.43;99684.78;4432099;32;34221;-74
2023/07/23 06:01:12;;;;;;;4.40;2.30;;;;;;;25.83;45.43;99700.19;4429620;32;34038;-74
2023/07/23 06:03:40;;;;;;;2.95;1.48;;;;;;;26.16;44.15;99687.22;4431344;32;32176;-74
2023/07/23 06:06:21;;;;;;;4.03;1.90;;;;;;;26.11;44.98;99698.00;4430843;32;33520;-75
2023/07/23 06:08:49;;;;;;;3.58;1.70;;;;;;;26.27;44.69;99702.16;4432014;32;33646;-75
2023/07/23 06:11:16;;;;;;;4.28;2.00;;;;;;;26.57;44.35;99691.47;4433504;32;34867;-75
2023/07/23 06:13:44;;;;;;;5.10;2.22;;;;;;;26.67;43.98;99688.22;4417762;32;33623;-75
2023/07/23 06:16:12;;;;;;;6.30;2.33;;;;;;;26.81;42.28;99692.59;4429560;32;33501;-75
2023/07/23 06:18:40;;;;;;;4.93;2.10;;;;;;;26.83;42.45;99695.09;4432004;32;33927;-76
2023/07/23 06:21:07;;;;;;;3.22;1.67;;;;;;;26.90;42.34;99688.53;4433046;32;34063;-75
2023/07/23 06:23:35;;;;;;;5.15;2.80;;;;;;;26.79;43.06;99694.72;4432280;32;34391;-75
2023/07/23 06:26:03;;;;;;;4.37;2.40;;;;;;;26.88;43.44;99692.53;4432728;32;33811;-77
2023/07/23 06:28:31;;;;;;;4.72;2.15;;;;;;;27.07;43.18;99690.72;4434733;32;34177;-78
2023/07/23 06:30:59;;;;;;;4.37;2.17;;;;;;;27.11;43.09;99694.69;4428186;32;34761;-77
2023/07/23 06:33:30;;;;;;;4.53;2.05;;;;;;;27.05;42.81;99695.59;4427158;32;33550;-78
2023/07/23 06:35:57;;;;;;;5.03;2.08;;;;;;;26.80;43.47;99698.28;4432759;32;33463;-78
2023/07/23 06:38:25;;;;;;;6.75;2.85;;;;;;;27.03;42.73;99704.06;4431827;32;33721;-78
2023/07/23 06:40:54;;;;;;;5.35;2.92;;;;;;;27.08;43.03;99703.37;4429310;32;35401;-77
2023/07/23 06:43:22;;;;;;;6.07;2.53;;;;;;;27.03;43.24;99700.44;4430656;32;31799;-77
2023/07/23 06:45:51;;;;;;;5.05;2.40;;;;;;;26.97;43.34;99702.19;4431146;32;33653;-77
2023/07/23 06:48:20;;;;;;;3.70;2.22;;;;;;;26.94;44.06;99708.12;4428755;32;33883;-78
2023/07/23 06:50:47;;;;;;;3.83;2.20;;;;;;;27.19;43.31;99708.16;4435178;32;34156;-77
2023/07/23 06:53:15;;;;;;;5.57;2.50;;;;;;;27.28;43.44;99701.31;4432982;32;33539;-77
2023/07/23 06:56:06;;;;;;;5.95;2.70;;;;;;;27.24;42.49;99697.34;4432363;32;34074;-77
2023/07/23 06:58:37;;;;;;;5.22;2.58;;;;;;;27.15;43.15;99705.03;4418009;32;33771;-76
2023/07/23 07:01:06;;;;;;;4.53;2.83;;;;;;;26.73;44.30;99700.25;4428845;32;34102;-76
2023/07/23 07:03:35;;;;;;;4.62;2.53;;;;;;;27.22;43.35;99706.88;4419402;32;33233;-76
2023/07/23 07:06:04;;;;;;;4.95;2.47;;;;;;;26.93;44.49;99706.44;4429344;32;33737;-74
2023/07/23 07:08:31;;;;;;;4.53;2.37;;;;;;;26.99;43.73;99700.06;4431275;32;33944;-78
2023/07/23 07:11:01;;;;;;;6.35;3.05;;;;;;;27.22;43.57;99699.47;4430990;32;34137;-77
2023/07/23 07:13:29;;;;;;;5.12;2.30;;;;;;;27.24;42.42;99708.34;4421416;32;34659;-77
2023/07/23 07:15:57;;;;;;;6.55;2.37;;;;;;;27.03;42.56;99704.06;4429287;32;33452;-79
2023/07/23 07:18:25;;;;;;;5.30;2.00;;;;;;;27.26;42.88;99706.22;4393338;32;35000;-79
2023/07/23 07:20:58;;;;;;;5.60;2.53;;;;;;;27.49;41.85;99700.09;4397317;32;33521;-78
2023/07/23 07:23:27;;;;;;;5.28;2.42;;;;;;;27.43;41.90;99695.50;4404560;32;33320;-79
2023/07/23 07:25:56;;;;;;;9.07;3.35;;;;;;;27.39;42.00;99706.09;4402002;32;35100;-80
2023/07/23 07:28:24;;;;;;;5.87;2.75;;;;;;;27.58;41.49;99693.25;4390824;32;34963;-77
2023/07/23 07:30:59;;;;;;;4.43;2.20;;;;;;;27.18;42.35;99695.50;4399931;32;34936;-76
2023/07/23 07:33:27;;;;;;;;;;;;;;;27.61;40.86;99691.94;4400756;32;33175;-73
2023/07/23 07:35:56;;;;;;;7.12;2.83;;;;;;;27.52;40.61;99688.66;4406456;32;33847;-71
2023/07/23 07:38:25;;;;;;;5.93;2.67;;;;;;;27.76;40.74;99691.56;4402484;32;33686;-71
2023/07/23 07:40:53;;;;;;;5.12;2.40;;;;;;;27.57;39.88;99694.28;4410108;32;34136;-74
2023/07/23 07:43:21;;;;;;;4.37;2.20;;;;;;;26.56;41.08;99694.44;4401171;32;33482;-75
2023/07/23 07:45:50;;;;;;;5.78;2.45;;;;;;;27.47;40.04;99690.38;4401289;32;33563;-75
2023/07/23 07:48:20;;;;;;;4.07;2.05;;;;;;;27.67;39.83;99688.25;4402543;32;33835;-75
2023/07/23 07:50:57;;;;;;;6.60;3.22;;;;;;;27.58;39.58;99693.25;4406863;32;33905;-74
2023/07/23 07:53:24;;;;;;;5.25;1.92;;;;;;;27.74;39.38;99688.22;4428192;32;32146;-75
2023/07/23 07:55:53;;;;;;;4.82;2.40;;;;;;;27.83;38.74;99692.34;4435942;32;33750;-74
2023/07/23 07:58:24;;;;;;;5.25;2.40;;;;;;;27.62;38.59;99696.37;4438371;32;34229;-74
2023/07/23 08:01:01;;;;;;;8.13;2.85;;;;;;;27.69;38.58;99693.53;4429980;32;34906;-75
2023/07/23 08:03:32;;;;;;;5.35;2.78;;;;;;;27.76;37.96;99688.81;4434441;32;32474;-74
2023/07/23 08:06:00;;;;;;;5.72;2.85;;;;;;;27.83;38.11;99695.09;4439311;32;33787;-75
2023/07/23 08:08:29;;;;;;;3.97;2.28;;;;;;;27.79;39.65;99685.62;4433639;32;33981;-75
2023/07/23 08:10:58;;;;;;;5.62;2.78;;;;;;;28.07;38.90;99688.69;4429430;32;34092;-73
2023/07/23 08:13:26;;;;;;;5.25;2.70;;;;;;;27.87;39.17;99685.34;4428130;32;34620;-75
2023/07/23 08:15:55;;;;;;;4.80;2.05;;;;;;;28.11;38.41;99683.56;4432007;32;33512;-74
2023/07/23 08:18:24;;;;;;;6.82;2.42;;;;;;;27.33;38.79;99689.69;4431965;32;35239;-75
2023/07/23 08:20:54;;;;;;;4.85;2.60;;;;;;;27.99;36.51;99685.41;4432733;32;35741;-73
2023/07/23 08:23:25;;;;;;;7.18;3.00;;;;;;;27.95;37.71;99682.28;4422752;32;33507;-73
2023/07/23 08:25:56;;;;;;;5.15;2.65;;;;;;;28.07;37.48;99677.69;4433577;32;34633;-73
2023/07/23 08:28:29;;;;;;;8.73;5.40;;;;;;;28.06;36.42;99678.78;4440990;32;34901;-73
2023/07/23 08:30:57;;;;;;;3.97;2.28;;;;;;;27.68;37.59;99686.38;4441349;32;34970;-73
2023/07/23 08:33:27;;;;;;;9.05;2.50;;;;;;;27.97;36.37;99677.41;4429851;32;33477;-72
2023/07/23 08:35:55;;;;;;;6.22;3.03;;;;;;;27.55;38.16;99690.09;4407043;32;34741;-74
2023/07/23 08:38:24;;;;;;;5.97;2.37;;;;;;;27.93;38.19;99684.44;4402330;32;35301;-74
2023/07/23 08:41:03;;;;;;;7.82;2.40;;;;;;;28.13;37.53;99675.94;4398921;32;33943;-72
2023/07/23 08:43:53;;;;;;;4.00;1.95;;;;;;;27.67;37.84;99679.19;4399847;32;33681;-71
2023/07/23 08:46:22;;;;;;;5.95;3.17;;;;;;;28.16;37.11;99680.97;4407537;32;33484;-72
2023/07/23 08:48:58;;;;;;;4.47;2.40;;;;;;;28.14;36.64;99676.78;4402559;32;33827;-72
2023/07/23 08:51:32;;;;;;;6.07;2.85;;;;;;;28.42;36.89;99679.81;4409504;32;34529;-73
2023/07/23 08:54:01;;;;;;;5.55;2.67;;;;;;;28.41;37.45;99683.66;4414558;32;33544;-72
2023/07/23 08:56:29;;;;;;;4.87;2.67;;;;;;;28.51;37.20;99694.09;4410209;32;34356;-73
2023/07/23 08:58:58;;;;;;;3.65;1.73;;;;;;;28.02;36.76;99673.94;4411146;32;33793;-74
2023/07/23 09:01:25;;;;;;;5.60;1.92;;;;;;;28.02;37.08;99680.28;4403659;32;34869;-71
2023/07/23 09:03:54;;;;;;;6.05;2.47;;;;;;;28.10;36.02;99681.91;4404718;32;33258;-72
2023/07/23 09:06:21;;;;;;;5.95;3.20;;;;;;;28.02;36.81;99690.44;4387487;32;33504;-73
2023/07/23 09:08:51;;;;;;;6.28;2.17;;;;;;;28.26;36.64;99694.19;4404558;32;33328;-73
2023/07/23 09:11:19;;;;;;;4.60;2.37;;;;;;;28.95;35.35;99683.69;4407178;32;34715;-73
2023/07/23 09:13:47;;;;;;;4.87;2.47;;;;;;;28.40;34.51;99690.22;4418629;32;33307;-71
2023/07/23 09:16:22;;;;;;;5.30;2.50;;;;;;;28.53;35.11;99690.00;4432285;32;35619;-73
2023/07/23 09:18:50;;;;;;;4.50;2.08;;;;;;;28.33;34.69;99689.44;4429692;32;33919;-74
2023/07/23 09:21:27;;;;;;;5.03;2.67;;;;;;;28.03;35.88;99687.47;4435890;32;34300;-74
2023/07/23 09:23:57;;;;;;;5.20;2.50;;;;;;;28.01;35.91;99684.09;4429186;32;33541;-75
2023/07/23 09:26:27;;;;;;;5.12;2.65;;;;;;;28.46;35.66;99685.69;4435923;32;34328;-75
2023/07/23 09:28:56;;;;;;;5.12;2.72;;;;;;;28.47;36.47;99688.19;4436982;32;34000;-74
2023/07/23 09:31:26;;;;;;;5.57;2.80;;;;;;;28.36;34.98;99685.38;4428343;32;34052;-74
2023/07/23 09:34:00;;;;;;;4.95;2.35;;;;;;;29.06;34.48;99687.59;4435210;32;33481;-74
2023/07/23 09:36:28;;;;;;;4.80;2.55;;;;;;;29.14;33.19;99684.47;4436246;32;33979;-72
2023/07/23 09:38:58;;;;;;;6.35;3.08;;;;;;;29.00;33.73;99687.44;4425842;32;33911;-72
2023/07/23 09:41:30;;;;;;;4.00;1.67;;;;;;;28.96;34.72;99688.97;4425682;32;33874;-73
2023/07/23 09:44:06;;;;;;;4.85;2.25;;;;;;;28.65;35.28;99692.00;4434179;32;34603;-73
2023/07/23 09:46:35;;;;;;;4.95;2.55;;;;;;;28.86;35.60;99685.97;4434028;32;34381;-72
2023/07/23 09:49:04;;;;;;;4.43;2.00;;;;;;;28.89;35.12;99682.72;4421651;32;34097;-72
2023/07/23 09:51:32;;;;;;;5.85;2.62;;;;;;;29.17;32.94;99678.47;4434469;32;34009;-72
2023/07/23 09:54:01;;;;;;;4.62;2.40;;;;;;;29.62;33.72;99675.16;4430037;32;33364;-74
2023/07/23 09:56:29;;;;;;;4.90;2.40;;;;;;;29.40;34.05;99678.50;4426497;32;34001;-75
2023/07/23 09:58:57;;;;;;;5.65;3.00;;;;;;;29.43;33.52;99674.41;4434358;32;34944;-74
2023/07/23 10:01:25;;;;;;;5.70;3.08;;;;;;;29.63;33.30;99671.31;4432474;32;34858;-76
2023/07/23 10:03:54;;;;;;;5.85;2.55;;;;;;;29.45;32.87;99675.88;4421892;32;33775;-75
2023/07/23 10:06:24;;;;;;;5.25;2.70;;;;;;;29.79;32.79;99675.25;4431321;32;34968;-74
2023/07/23 10:08:51;;;;;;;4.65;2.50;;;;;;;30.35;33.13;99666.25;4431948;32;33813;-75
2023/07/23 10:11:19;;;;;;;6.55;2.67;;;;;;;30.51;32.60;99666.56;4432931;32;34826;-75
2023/07/23 10:13:48;;;;;;;6.18;2.97;;;;;;;30.44;32.32;99657.59;4429090;32;34297;-75
2023/07/23 10:16:20;;;;;;;6.18;3.17;;;;;;;30.14;32.20;99661.38;4426938;32;34150;-74
2023/07/23 10:18:49;;;;;;;4.37;2.33;;;;;;;30.22;32.83;99655.53;4413874;32;33627;-76
2023/07/23 10:21:18;;;;;;;5.37;2.50;;;;;;;30.60;32.58;99659.56;4413586;32;33823;-74
2023/07/23 10:24:05;;;;;;;5.12;2.45;;;;;;;30.74;31.57;99654.56;4431531;32;33663;-75
2023/07/23 10:26:43;;;;;;;5.60;2.65;;;;;;;31.05;30.82;99654.03;4425889;32;34019;-73
2023/07/23 10:29:18;;;;;;;4.85;2.87;;;;;;;30.90;29.87;99651.00;4420823;32;34269;-75
2023/07/23 10:31:47;;;;;;;4.32;2.03;;;;;;;30.22;30.89;99652.75;4433711;32;33319;-74
2023/07/23 10:34:26;;;;;;;6.82;2.87;;;;;;;30.11;30.73;99645.31;4432981;32;34620;-74
2023/07/23 10:37:14;;;;;;;6.87;2.47;;;;;;;31.08;29.76;99649.94;4431725;32;33744;-74
2023/07/23 10:39:45;;;;;;;6.00;3.22;;;;;;;31.59;29.70;99647.09;4427590;32;33920;-74
2023/07/23 10:42:27;;;;;;;5.40;3.20;;;;;;;31.01;30.54;99638.19;4429657;32;33940;-78
2023/07/23 10:45:23;;;;;;;5.90;3.05;;;;;;;31.73;29.99;99634.59;4426079;32;34497;-75
2023/07/23 10:47:58;;;;;;;6.95;3.12;;;;;;;31.54;29.65;99623.81;4421975;32;34000;-74
2023/07/23 10:50:30;;;;;;;5.10;2.62;;;;;;;31.61;29.91;99631.09;4433916;32;33859;-74
2023/07/23 10:53:03;;;;;;;4.90;2.95;;;;;;;31.74;28.93;99625.19;4405765;32;34081;-74
2023/07/23 10:55:46;;;;;;;5.15;2.42;;;;;;;31.61;29.45;99631.94;4414824;32;34394;-74
2023/07/23 10:58:15;;;;;;;4.80;2.90;;;;;;;31.81;29.85;99627.78;4413185;32;33528;-74
2023/07/23 11:00:45;;;;;;;5.72;3.08;;;;;;;32.17;28.85;99618.03;4405939;32;33935;-75
2023/07/23 11:03:14;;;;;;;4.62;2.47;;;;;;;31.30;31.22;99614.03;4415505;32;34112;-75
2023/07/23 11:05:43;;;;;;;3.90;2.00;;;;;;;32.04;28.79;99605.41;4405986;32;33148;-75
2023/07/23 11:08:11;;;;;;;5.00;2.30;;;;;;;31.60;30.01;99615.62;4414628;32;35228;-74
2023/07/23 11:10:57;;;;;;;6.53;2.75;;;;;;;31.99;28.79;99603.41;4414329;32;34976;-74
2023/07/23 11:13:32;;;;;;;5.35;2.62;;;;;;;32.31;28.78;99601.81;4417025;32;34789;-76
2023/07/23 11:16:01;;;;;;;4.72;2.45;;;;;;;32.31;28.99;99602.66;4417163;32;34495;-75
2023/07/23 11:18:31;;;;;;;8.40;2.90;;;;;;;32.30;27.50;99600.16;4417576;32;33946;-74
2023/07/23 11:21:03;;;;;;;5.47;2.08;;;;;;;32.44;28.61;99596.72;4417327;32;33847;-74
2023/07/23 11:23:31;;;;;;;6.32;2.87;;;;;;;31.85;28.47;99595.75;4401669;32;34640;-74
2023/07/23 11:25:59;;;;;;;5.10;2.42;;;;;;;32.33;27.55;99594.06;4417823;32;33526;-75
2023/07/23 11:28:27;;;;;;;4.60;2.37;;;;;;;32.51;27.98;99593.75;4417268;32;34643;-74
2023/07/23 11:30:55;;;;;;;6.12;2.17;;;;;;;32.59;27.57;99587.72;4427735;32;34804;-76
2023/07/23 11:33:29;;;;;;;4.25;2.22;;;;;;;32.44;28.69;99580.09;4433334;32;32865;-74
2023/07/23 11:36:00;;;;;;;3.92;2.12;;;;;;;32.05;28.72;99581.34;4429062;32;33296;-71
2023/07/23 11:38:31;;;;;;;4.90;2.60;;;;;;;32.10;29.23;99579.44;4431109;32;33607;-71
2023/07/23 11:41:00;;;;;;;6.70;2.28;;;;;;;30.76;30.00;99573.09;4435929;32;35887;-70
2023/07/23 11:43:28;;;;;;;5.35;2.90;;;;;;;31.33;29.67;99569.31;4432634;32;35126;-79